createdAt,value
2022-08-19T00:00:20.034Z,0.40
2022-08-19T00:01:28.989Z,0.30
2022-08-19T00:02:32.515Z,0.30
2022-08-19T00:03:35.951Z,0.30
2022-08-19T00:04:39.252Z,0.40
2022-08-19T00:05:43.443Z,0.38
2022-08-19T00:06:46.877Z,0.40
2022-08-19T00:07:50.535Z,0.30
2022-08-19T00:08:52.442Z,0.35
2022-08-19T00:09:56.827Z,0.40
2022-08-19T00:10:59.438Z,0.30
2022-08-19T00:12:02.662Z,0.22
2022-08-19T00:13:05.177Z,0.30
2022-08-19T00:14:10.574Z,0.40
2022-08-19T00:15:15.108Z,0.30
2022-08-19T00:16:22.781Z,0.35
2022-08-19T00:17:28.245Z,0.30
2022-08-19T00:18:31.151Z,0.40
2022-08-19T00:19:33.344Z,0.30
2022-08-19T00:20:41.205Z,0.30
2022-08-19T00:21:44.246Z,0.30
2022-08-19T00:22:48.260Z,0.30
2022-08-19T00:23:50.216Z,0.30
2022-08-19T00:24:53.113Z,0.30
2022-08-19T00:25:56.765Z,0.40
2022-08-19T00:27:25.096Z,0.40
2022-08-19T00:28:23.348Z,0.30
2022-08-19T00:29:26.182Z,0.30
2022-08-19T00:30:29.384Z,0.30
2022-08-19T00:31:32.093Z,0.30
2022-08-19T00:32:35.259Z,0.38
2022-08-19T00:33:37.780Z,0.30
2022-08-19T00:34:40.922Z,0.40
2022-08-19T00:35:44.173Z,0.40
2022-08-19T00:36:47.403Z,0.40
2022-08-19T00:37:50.238Z,0.40
2022-08-19T00:38:54.307Z,0.30
2022-08-19T00:39:56.943Z,0.30
2022-08-19T00:40:59.900Z,0.40
2022-08-19T00:42:01.786Z,0.35
2022-08-19T00:43:10.918Z,0.38
2022-08-19T00:44:16.081Z,0.30
2022-08-19T00:45:21.949Z,0.40
2022-08-19T00:46:23.848Z,0.30
2022-08-19T00:47:26.739Z,0.35
2022-08-19T00:48:29.600Z,0.30
2022-08-19T00:49:36.414Z,0.30
2022-08-19T00:50:52.077Z,0.30
2022-08-19T00:52:02.438Z,0.30
2022-08-19T00:53:05.146Z,0.40
2022-08-19T00:54:08.105Z,0.40
2022-08-19T00:55:12.821Z,0.30
2022-08-19T00:56:16.374Z,0.40
2022-08-19T00:57:23.282Z,0.40
2022-08-19T00:58:30.895Z,0.40
2022-08-19T01:00:00.325Z,0.30
2022-08-19T01:01:00.027Z,0.45
2022-08-19T01:02:01.999Z,0.30
2022-08-19T01:03:05.303Z,0.40
2022-08-19T01:04:08.139Z,0.40
2022-08-19T01:05:13.628Z,0.30
2022-08-19T01:06:15.660Z,0.35
2022-08-19T01:07:25.219Z,0.32
2022-08-19T01:08:27.435Z,0.40
2022-08-19T01:09:31.298Z,0.40
2022-08-19T01:10:37.207Z,0.40
2022-08-19T01:11:44.902Z,0.40
2022-08-19T01:12:47.711Z,0.40
2022-08-19T01:13:52.504Z,0.40
2022-08-19T01:14:55.743Z,0.40
2022-08-19T01:16:02.500Z,0.40
2022-08-19T01:17:05.161Z,0.40
2022-08-19T01:18:11.633Z,0.40
2022-08-19T01:19:19.441Z,0.38
2022-08-19T01:20:24.753Z,0.40
2022-08-19T01:21:32.356Z,0.35
2022-08-19T01:22:42.727Z,0.40
2022-08-19T01:23:46.936Z,0.30
2022-08-19T01:24:49.901Z,0.30
2022-08-19T01:25:55.446Z,0.40
2022-08-19T01:26:58.341Z,0.30
2022-08-19T01:28:06.466Z,0.40
2022-08-19T01:29:13.544Z,0.30
2022-08-19T01:30:23.449Z,0.40
2022-08-19T01:31:32.580Z,0.40
2022-08-19T01:32:35.852Z,0.30
2022-08-19T01:33:38.731Z,0.40
2022-08-19T01:34:40.887Z,0.30
2022-08-19T01:35:44.176Z,0.30
2022-08-19T01:36:48.219Z,0.30
2022-08-19T01:37:55.566Z,0.30
2022-08-19T01:38:59.060Z,0.40
2022-08-19T01:40:03.522Z,0.32
2022-08-19T01:41:10.951Z,0.40
2022-08-19T01:42:13.932Z,0.50
2022-08-19T01:43:16.279Z,0.40
2022-08-19T01:44:21.271Z,0.40
2022-08-19T01:45:25.410Z,0.40
2022-08-19T01:46:29.486Z,0.38
2022-08-19T01:47:31.557Z,0.40
2022-08-19T01:48:40.036Z,0.40
2022-08-19T01:49:42.857Z,0.40
2022-08-19T01:50:44.782Z,0.40
2022-08-19T01:51:47.988Z,0.30
2022-08-19T01:53:06.077Z,0.40
2022-08-19T01:54:10.685Z,0.40
2022-08-19T01:55:15.259Z,0.40
2022-08-19T01:56:18.922Z,0.45
2022-08-19T01:57:20.908Z,0.40
2022-08-19T01:58:30.253Z,0.40
2022-08-19T01:59:33.547Z,0.40
2022-08-19T02:00:36.584Z,0.40
2022-08-19T02:01:38.555Z,0.40
2022-08-19T02:02:41.516Z,0.30
2022-08-19T02:03:46.892Z,0.50
2022-08-19T02:04:50.237Z,0.50
2022-08-19T02:05:56.144Z,0.43
2022-08-19T02:07:00.066Z,0.40
2022-08-19T02:08:03.997Z,0.40
2022-08-19T02:09:10.160Z,0.50
2022-08-19T02:10:16.684Z,0.50
2022-08-19T02:11:22.534Z,0.40
2022-08-19T02:12:24.436Z,0.47
2022-08-19T02:13:27.990Z,0.40
2022-08-19T02:14:29.858Z,0.40
2022-08-19T02:15:33.010Z,0.30
2022-08-19T02:16:36.033Z,0.50
2022-08-19T02:17:39.010Z,0.40
2022-08-19T02:18:40.887Z,0.40
2022-08-19T02:19:43.734Z,0.40
2022-08-19T02:20:47.955Z,0.43
2022-08-19T02:21:50.892Z,0.40
2022-08-19T02:22:53.706Z,0.40
2022-08-19T02:23:58.545Z,0.40
2022-08-19T02:25:00.894Z,0.30
2022-08-19T02:26:03.848Z,0.40
2022-08-19T02:27:06.791Z,0.38
2022-08-19T02:28:10.203Z,0.40
2022-08-19T02:29:12.202Z,0.40
2022-08-19T02:30:18.192Z,0.40
2022-08-19T02:31:23.032Z,0.40
2022-08-19T02:32:28.584Z,0.40
2022-08-19T02:33:30.817Z,0.40
2022-08-19T02:34:33.697Z,0.40
2022-08-19T02:35:35.694Z,0.40
2022-08-19T02:36:42.484Z,0.40
2022-08-19T02:38:03.965Z,0.40
2022-08-19T02:39:07.177Z,0.40
2022-08-19T02:40:12.535Z,0.40
2022-08-19T02:41:22.268Z,0.40
2022-08-19T02:42:28.631Z,0.50
2022-08-19T02:43:37.375Z,0.40
2022-08-19T02:44:40.435Z,0.40
2022-08-19T02:45:43.412Z,0.40
2022-08-19T02:46:48.319Z,0.40
2022-08-19T02:47:50.276Z,0.50
2022-08-19T02:48:55.049Z,0.40
2022-08-19T02:49:56.903Z,0.40
2022-08-19T02:51:00.429Z,0.50
2022-08-19T02:52:02.827Z,0.40
2022-08-19T02:53:06.630Z,0.50
2022-08-19T02:54:12.228Z,0.40
2022-08-19T02:55:15.825Z,0.40
2022-08-19T02:56:18.598Z,0.40
2022-08-19T02:57:21.467Z,0.40
2022-08-19T02:58:25.032Z,0.40
2022-08-19T02:59:31.420Z,0.40
2022-08-19T03:00:33.420Z,0.40
2022-08-19T03:01:37.809Z,0.30
2022-08-19T03:02:40.202Z,0.40
2022-08-19T03:03:43.059Z,0.40
2022-08-19T03:04:45.039Z,0.40
2022-08-19T03:05:56.851Z,0.30
2022-08-19T03:07:09.293Z,0.40
2022-08-19T03:08:15.114Z,0.40
2022-08-19T03:09:20.533Z,0.50
2022-08-19T03:10:23.905Z,0.40
2022-08-19T03:11:28.851Z,0.30
2022-08-19T03:12:30.861Z,0.40
2022-08-19T03:13:34.310Z,0.43
2022-08-19T03:14:37.715Z,0.40
2022-08-19T03:15:44.550Z,0.40
2022-08-19T03:16:48.457Z,0.40
2022-08-19T03:17:51.351Z,0.30
2022-08-19T03:18:55.900Z,0.40
2022-08-19T03:19:57.874Z,0.40
2022-08-19T03:21:01.327Z,0.40
2022-08-19T03:22:05.086Z,0.40
2022-08-19T03:23:07.959Z,0.50
2022-08-19T03:24:10.210Z,0.50
2022-08-19T03:25:14.715Z,0.40
2022-08-19T03:26:17.753Z,0.40
2022-08-19T03:27:20.580Z,0.40
2022-08-19T03:28:22.836Z,0.40
2022-08-19T03:29:30.868Z,0.40
2022-08-19T03:30:33.186Z,0.40
2022-08-19T03:31:43.423Z,0.40
2022-08-19T03:32:48.176Z,0.40
2022-08-19T03:33:56.549Z,0.40
2022-08-19T03:34:58.962Z,0.40
2022-08-19T03:36:04.316Z,0.35
2022-08-19T03:37:08.466Z,0.40
2022-08-19T03:38:10.324Z,0.50
2022-08-19T03:39:13.268Z,0.40
2022-08-19T03:40:16.801Z,0.40
2022-08-19T03:41:21.848Z,0.43
2022-08-19T03:42:32.205Z,0.40
2022-08-19T03:43:50.669Z,0.40
2022-08-19T03:44:53.601Z,0.50
2022-08-19T03:46:05.060Z,0.40
2022-08-19T03:47:07.355Z,0.40
2022-08-19T03:48:10.634Z,0.40
2022-08-19T03:49:14.024Z,0.43
2022-08-19T03:50:18.120Z,0.50
2022-08-19T03:51:30.873Z,0.40
2022-08-19T03:52:34.073Z,0.40
2022-08-19T03:53:36.333Z,0.40
2022-08-19T03:54:39.573Z,0.40
2022-08-19T03:55:42.890Z,0.50
2022-08-19T03:56:47.685Z,0.40
2022-08-19T03:57:49.625Z,0.45
2022-08-19T03:58:53.556Z,0.45
2022-08-19T03:59:55.626Z,0.40
2022-08-19T04:01:18.707Z,0.40
2022-08-19T04:02:21.128Z,0.40
2022-08-19T04:03:24.129Z,0.30
2022-08-19T04:04:28.920Z,0.40
2022-08-19T04:05:32.345Z,0.40
2022-08-19T04:06:37.595Z,0.40
2022-08-19T04:07:42.740Z,0.40
2022-08-19T04:08:46.996Z,0.47
2022-08-19T04:09:51.389Z,0.40
2022-08-19T04:10:55.078Z,0.40
2022-08-19T04:12:00.560Z,0.40
2022-08-19T04:13:02.998Z,0.40
2022-08-19T04:14:05.822Z,0.40
2022-08-19T04:15:09.632Z,0.50
2022-08-19T04:16:11.624Z,0.50
2022-08-19T04:17:14.998Z,0.60
2022-08-19T04:18:16.914Z,0.50
2022-08-19T04:19:20.842Z,0.50
2022-08-19T04:20:22.667Z,0.60
2022-08-19T04:21:27.348Z,0.55
2022-08-19T04:22:29.621Z,0.60
2022-08-19T04:23:32.997Z,0.60
2022-08-19T04:24:36.206Z,0.50
2022-08-19T04:25:41.139Z,0.55
2022-08-19T04:26:44.789Z,0.55
2022-08-19T04:27:47.971Z,0.60
2022-08-19T04:28:51.166Z,0.50
2022-08-19T04:29:56.119Z,0.50
2022-08-19T04:30:58.414Z,0.50
2022-08-19T04:32:09.084Z,0.60
2022-08-19T04:33:12.728Z,0.60
2022-08-19T04:34:18.525Z,0.50
2022-08-19T04:35:24.453Z,0.60
2022-08-19T04:36:34.556Z,0.60
2022-08-19T04:37:36.415Z,0.60
2022-08-19T04:38:39.286Z,0.50
2022-08-19T04:40:02.427Z,0.60
2022-08-19T04:41:23.390Z,0.60
2022-08-19T04:42:42.530Z,0.52
2022-08-19T04:43:49.750Z,0.60
2022-08-19T04:44:51.715Z,0.60
2022-08-19T04:45:56.355Z,0.60
2022-08-19T04:46:59.250Z,0.60
2022-08-19T04:48:19.818Z,0.70
2022-08-19T04:49:26.430Z,0.63
2022-08-19T04:50:28.343Z,0.65
2022-08-19T04:51:32.073Z,0.60
2022-08-19T04:52:33.971Z,0.60
2022-08-19T04:53:38.786Z,0.60
2022-08-19T04:54:40.687Z,0.60
2022-08-19T04:55:44.569Z,0.55
2022-08-19T04:56:46.470Z,0.60
2022-08-19T04:57:51.675Z,0.55
2022-08-19T04:58:54.826Z,0.50
2022-08-19T04:59:58.588Z,0.50
2022-08-19T05:01:01.159Z,0.60
2022-08-19T05:02:04.979Z,0.60
2022-08-19T05:03:08.017Z,0.50
2022-08-19T05:04:10.167Z,0.60
2022-08-19T05:05:13.493Z,0.50
2022-08-19T05:06:17.108Z,0.50
2022-08-19T05:07:20.024Z,0.60
2022-08-19T05:08:30.652Z,0.63
2022-08-19T05:09:58.966Z,0.60
2022-08-19T05:10:58.252Z,0.70
2022-08-19T05:12:01.277Z,0.50
2022-08-19T05:13:05.685Z,0.60
2022-08-19T05:14:08.732Z,0.60
2022-08-19T05:15:12.141Z,0.60
2022-08-19T05:16:15.421Z,0.60
2022-08-19T05:17:38.398Z,0.60
2022-08-19T05:18:58.818Z,0.60
2022-08-19T05:20:19.652Z,0.63
2022-08-19T05:21:40.936Z,0.70
2022-08-19T05:22:45.638Z,0.60
2022-08-19T05:23:50.593Z,0.60
2022-08-19T05:25:11.759Z,0.60
2022-08-19T05:26:15.367Z,0.50
2022-08-19T05:27:17.275Z,0.50
2022-08-19T05:28:22.430Z,0.50
2022-08-19T05:29:27.297Z,0.50
2022-08-19T05:30:46.757Z,0.50
2022-08-19T05:31:50.314Z,0.50
2022-08-19T05:32:54.562Z,0.50
2022-08-19T05:33:56.947Z,0.50
2022-08-19T05:34:59.835Z,0.50
2022-08-19T05:36:03.368Z,0.60
2022-08-19T05:37:08.457Z,0.60
2022-08-19T05:38:11.877Z,0.40
2022-08-19T05:39:18.150Z,0.50
2022-08-19T05:40:20.108Z,0.50
2022-08-19T05:41:31.397Z,0.45
2022-08-19T05:42:34.394Z,0.50
2022-08-19T05:43:38.190Z,0.50
2022-08-19T05:44:45.407Z,0.40
2022-08-19T05:45:47.326Z,0.50
2022-08-19T05:46:50.217Z,0.50
2022-08-19T05:47:52.061Z,0.50
2022-08-19T05:48:57.119Z,0.50
2022-08-19T05:49:59.101Z,0.50
2022-08-19T05:51:07.112Z,0.50
2022-08-19T05:52:12.461Z,0.60
2022-08-19T05:53:17.289Z,0.50
2022-08-19T05:54:20.047Z,0.50
2022-08-19T05:55:23.577Z,0.60
2022-08-19T05:56:25.906Z,0.55
2022-08-19T05:57:29.871Z,0.60
2022-08-19T05:58:33.458Z,0.50
2022-08-19T05:59:39.177Z,0.60
2022-08-19T06:00:44.560Z,0.50
2022-08-19T06:01:51.374Z,0.50
2022-08-19T06:02:57.522Z,0.50
2022-08-19T06:03:59.929Z,0.50
2022-08-19T06:05:03.237Z,0.50
2022-08-19T06:06:06.399Z,0.50
2022-08-19T06:07:12.246Z,0.50
2022-08-19T06:08:14.778Z,0.50
2022-08-19T06:09:17.672Z,0.50
2022-08-19T06:10:19.727Z,0.50
2022-08-19T06:11:24.546Z,0.43
2022-08-19T06:12:34.003Z,0.50
2022-08-19T06:13:36.893Z,0.50
2022-08-19T06:14:41.941Z,0.50
2022-08-19T06:15:45.350Z,0.50
2022-08-19T06:16:48.544Z,0.40
2022-08-19T06:17:50.608Z,0.40
2022-08-19T06:18:55.208Z,0.50
2022-08-19T06:19:59.420Z,0.40
2022-08-19T06:21:04.983Z,0.40
2022-08-19T06:22:08.254Z,0.55
2022-08-19T06:23:10.300Z,0.50
2022-08-19T06:24:24.012Z,0.50
2022-08-19T06:25:30.040Z,0.50
2022-08-19T06:26:35.507Z,0.50
2022-08-19T06:27:48.288Z,0.50
2022-08-19T06:29:00.813Z,0.50
2022-08-19T06:30:06.349Z,0.50
2022-08-19T06:31:08.719Z,0.40
2022-08-19T06:32:12.084Z,0.50
2022-08-19T06:33:13.992Z,0.50
2022-08-19T06:34:17.579Z,0.50
2022-08-19T06:35:19.658Z,0.40
2022-08-19T06:36:28.515Z,0.50
2022-08-19T06:37:31.919Z,0.50
2022-08-19T06:38:34.386Z,0.50
2022-08-19T06:39:39.358Z,0.40
2022-08-19T06:40:41.385Z,0.50
2022-08-19T06:41:52.548Z,0.50
2022-08-19T06:42:59.867Z,0.50
2022-08-19T06:44:03.761Z,0.50
2022-08-19T06:45:09.623Z,0.50
2022-08-19T06:46:14.575Z,0.50
2022-08-19T06:47:23.657Z,0.50
2022-08-19T06:48:30.573Z,0.50
2022-08-19T06:49:33.515Z,0.60
2022-08-19T06:50:36.800Z,0.50
2022-08-19T06:51:44.302Z,0.50
2022-08-19T06:52:46.135Z,0.50
2022-08-19T06:53:58.365Z,0.55
2022-08-19T06:55:02.309Z,0.50
2022-08-19T06:56:08.721Z,0.40
2022-08-19T06:57:16.059Z,0.50
2022-08-19T06:58:18.329Z,0.50
2022-08-19T06:59:26.993Z,0.50
2022-08-19T07:01:38.462Z,0.45
2022-08-19T07:02:42.626Z,0.40
2022-08-19T07:03:47.358Z,0.50
2022-08-19T07:04:52.747Z,0.40
2022-08-19T07:05:55.810Z,0.50
2022-08-19T07:07:01.398Z,0.50
2022-08-19T07:08:21.795Z,0.47
2022-08-19T07:09:24.714Z,0.40
2022-08-19T07:10:26.681Z,0.50
2022-08-19T07:11:29.784Z,0.50
2022-08-19T07:12:35.641Z,0.50
2022-08-19T07:13:38.704Z,0.50
2022-08-19T07:14:41.771Z,0.47
2022-08-19T07:15:47.292Z,0.50
2022-08-19T07:16:52.409Z,0.40
2022-08-19T07:17:55.256Z,0.40
2022-08-19T07:18:57.871Z,0.40
2022-08-19T07:20:05.342Z,0.40
2022-08-19T07:21:13.730Z,0.43
2022-08-19T07:22:17.358Z,0.40
2022-08-19T07:23:19.376Z,0.50
2022-08-19T07:24:24.281Z,0.40
2022-08-19T07:25:32.065Z,0.50
2022-08-19T07:26:43.580Z,0.40
2022-08-19T07:27:48.708Z,0.40
2022-08-19T07:28:58.475Z,0.45
2022-08-19T07:30:00.624Z,0.40
2022-08-19T07:31:05.995Z,0.40
2022-08-19T07:32:07.953Z,0.40
2022-08-19T07:33:16.382Z,0.40
2022-08-19T07:34:19.536Z,0.43
2022-08-19T07:35:22.845Z,0.40
2022-08-19T07:36:33.197Z,0.50
2022-08-19T07:37:37.985Z,0.30
2022-08-19T07:38:41.754Z,0.50
2022-08-19T07:39:44.819Z,0.50
2022-08-19T07:40:47.213Z,0.75
2022-08-19T07:41:51.409Z,0.40
2022-08-19T07:42:53.265Z,0.40
2022-08-19T07:43:59.580Z,0.50
2022-08-19T07:45:01.425Z,0.50
2022-08-19T07:46:05.782Z,0.40
2022-08-19T07:47:47.952Z,0.50
2022-08-19T07:48:36.806Z,0.50
2022-08-19T07:49:39.031Z,0.50
2022-08-19T07:50:42.508Z,0.40
2022-08-19T07:51:45.805Z,0.50
2022-08-19T07:52:50.505Z,0.50
2022-08-19T07:53:52.491Z,0.40
2022-08-19T07:54:55.649Z,0.50
2022-08-19T07:56:00.413Z,0.50
2022-08-19T07:57:03.669Z,0.50
2022-08-19T07:58:06.859Z,0.40
2022-08-19T07:59:10.063Z,0.40
2022-08-19T08:00:20.459Z,0.40
2022-08-19T08:01:30.377Z,0.50
2022-08-19T08:02:35.411Z,0.40
2022-08-19T08:03:56.419Z,0.50
2022-08-19T08:05:16.764Z,0.30
2022-08-19T08:06:37.379Z,0.40
2022-08-19T08:07:57.503Z,0.30
2022-08-19T08:09:13.187Z,0.40
2022-08-19T08:10:21.199Z,0.50
2022-08-19T08:11:24.006Z,0.40
2022-08-19T08:12:34.751Z,0.40
2022-08-19T08:13:39.066Z,0.50
2022-08-19T08:14:44.770Z,0.40
2022-08-19T08:15:48.934Z,0.40
2022-08-19T08:16:56.906Z,0.40
2022-08-19T08:18:01.134Z,0.30
2022-08-19T08:19:07.275Z,0.40
2022-08-19T08:20:23.570Z,0.32
2022-08-19T08:21:25.763Z,0.40
2022-08-19T08:22:46.017Z,0.47
2022-08-19T08:23:48.984Z,0.40
2022-08-19T08:24:50.970Z,0.40
2022-08-19T08:25:56.665Z,0.30
2022-08-19T08:27:01.634Z,0.30
2022-08-19T08:28:05.652Z,0.43
2022-08-19T08:29:12.306Z,0.50
2022-08-19T08:30:19.040Z,0.47
2022-08-19T08:31:25.157Z,0.50
2022-08-19T08:32:31.990Z,0.40
2022-08-19T08:33:37.026Z,0.40
2022-08-19T08:34:41.674Z,0.50
2022-08-19T08:35:50.110Z,0.50
2022-08-19T08:36:55.560Z,0.50
2022-08-19T08:38:00.605Z,0.50
2022-08-19T08:39:06.261Z,0.50
2022-08-19T08:40:20.933Z,0.45
2022-08-19T08:41:33.250Z,0.50
2022-08-19T08:42:42.614Z,0.50
2022-08-19T08:43:49.798Z,0.40
2022-08-19T08:45:02.111Z,0.50
2022-08-19T08:46:09.406Z,0.40
2022-08-19T08:47:22.025Z,0.38
2022-08-19T08:48:40.248Z,0.40
2022-08-19T08:49:51.324Z,0.40
2022-08-19T08:50:58.347Z,0.40
2022-08-19T08:52:11.614Z,0.50
2022-08-19T08:53:18.504Z,0.30
2022-08-19T08:54:38.781Z,0.40
2022-08-19T08:55:43.879Z,0.40
2022-08-19T08:56:51.587Z,0.40
2022-08-19T08:58:01.082Z,0.40
2022-08-19T08:59:13.608Z,0.40
2022-08-19T09:00:22.672Z,0.40
2022-08-19T09:01:30.282Z,0.43
2022-08-19T09:02:38.488Z,0.40
2022-08-19T09:03:52.330Z,0.50
2022-08-19T09:04:59.457Z,0.40
2022-08-19T09:06:19.791Z,0.50
2022-08-19T09:07:45.723Z,0.50
2022-08-19T09:09:03.891Z,0.40
2022-08-19T09:10:25.862Z,0.40
2022-08-19T09:11:46.859Z,0.40
2022-08-19T09:13:02.561Z,0.40
2022-08-19T09:14:49.204Z,0.40
2022-08-19T09:15:59.780Z,0.40
2022-08-19T09:17:05.189Z,0.40
2022-08-19T09:18:15.118Z,0.50
2022-08-19T09:20:32.696Z,0.40
2022-08-19T09:21:40.613Z,0.40
2022-08-19T09:22:46.416Z,0.40
2022-08-19T09:23:51.429Z,0.40
2022-08-19T09:25:00.557Z,0.50
2022-08-19T09:26:10.748Z,0.40
2022-08-19T09:27:18.173Z,0.40
2022-08-19T09:28:22.484Z,0.40
2022-08-19T09:29:31.521Z,0.40
2022-08-19T09:30:49.769Z,0.40
2022-08-19T09:31:55.115Z,0.30
2022-08-19T09:32:57.942Z,0.40
2022-08-19T09:34:00.506Z,0.43
2022-08-19T09:35:08.771Z,0.50
2022-08-19T09:36:14.140Z,0.45
2022-08-19T09:37:27.618Z,0.40
2022-08-19T09:38:30.968Z,0.50
2022-08-19T09:39:35.927Z,0.50
2022-08-19T09:40:38.622Z,0.50
2022-08-19T09:41:41.600Z,0.40
2022-08-19T09:42:52.609Z,0.40
2022-08-19T09:43:57.622Z,0.40
2022-08-19T09:44:59.483Z,0.50
2022-08-19T09:46:04.861Z,0.40
2022-08-19T09:47:24.101Z,0.30
2022-08-19T09:48:26.893Z,0.40
2022-08-19T09:49:29.853Z,0.40
2022-08-19T09:50:36.720Z,0.40
2022-08-19T09:51:39.739Z,0.30
2022-08-19T09:52:43.122Z,0.50
2022-08-19T09:54:04.678Z,0.30
2022-08-19T09:55:09.011Z,0.50
2022-08-19T09:56:13.464Z,0.40
2022-08-19T09:57:18.973Z,0.40
2022-08-19T09:58:24.755Z,0.40
2022-08-19T09:59:30.215Z,0.30
2022-08-19T10:00:37.860Z,0.40
2022-08-19T10:01:40.884Z,0.35
2022-08-19T10:02:44.640Z,0.50
2022-08-19T10:03:50.553Z,0.40
2022-08-19T10:05:11.262Z,0.40
2022-08-19T10:06:17.380Z,0.50
2022-08-19T10:07:19.639Z,0.50
2022-08-19T10:08:26.746Z,0.40
2022-08-19T10:09:34.285Z,0.40
2022-08-19T10:10:38.277Z,0.40
2022-08-19T10:11:54.820Z,0.50
2022-08-19T10:12:57.147Z,0.50
2022-08-19T10:14:00.590Z,0.47
2022-08-19T10:15:04.314Z,0.40
2022-08-19T10:16:10.139Z,0.32
2022-08-19T10:17:19.289Z,0.40
2022-08-19T10:18:26.489Z,0.30
2022-08-19T10:19:33.392Z,0.30
2022-08-19T10:20:36.720Z,0.32
2022-08-19T10:21:42.389Z,0.40
2022-08-19T10:22:45.498Z,0.50
2022-08-19T10:23:54.042Z,0.40
2022-08-19T10:24:56.134Z,0.40
2022-08-19T10:26:01.997Z,0.40
2022-08-19T10:27:04.580Z,0.35
2022-08-19T10:28:10.595Z,0.40
2022-08-19T10:29:14.829Z,0.40
2022-08-19T10:30:38.038Z,0.40
2022-08-19T10:32:00.328Z,0.30
2022-08-19T10:33:08.288Z,0.40
2022-08-19T10:34:17.557Z,0.45
2022-08-19T10:35:30.513Z,0.40
2022-08-19T10:36:56.079Z,0.40
2022-08-19T10:38:02.461Z,0.50
2022-08-19T10:39:08.039Z,0.50
2022-08-19T10:40:12.855Z,0.40
2022-08-19T10:41:17.732Z,0.50
2022-08-19T10:42:21.777Z,0.40
2022-08-19T10:43:24.330Z,0.40
2022-08-19T10:44:32.373Z,0.50
2022-08-19T10:45:36.228Z,0.40
2022-08-19T10:46:46.082Z,0.50
2022-08-19T10:47:51.599Z,0.47
2022-08-19T10:48:55.442Z,0.50
2022-08-19T10:50:16.183Z,0.40
2022-08-19T10:51:37.413Z,0.43
2022-08-19T10:52:52.088Z,0.50
2022-08-19T10:53:58.134Z,0.40
2022-08-19T10:55:21.370Z,0.50
2022-08-19T10:56:42.643Z,0.50
2022-08-19T10:58:01.656Z,0.40
2022-08-19T10:59:06.959Z,0.40
2022-08-19T11:00:10.553Z,0.40
2022-08-19T11:01:13.603Z,0.40
2022-08-19T11:02:16.643Z,0.40
2022-08-19T11:03:19.694Z,0.40
2022-08-19T11:04:28.949Z,0.40
2022-08-19T11:06:34.437Z,0.50
2022-08-19T11:07:37.174Z,0.40
2022-08-19T11:08:41.694Z,0.40
2022-08-19T11:09:43.945Z,0.47
2022-08-19T11:10:50.474Z,0.50
2022-08-19T11:11:54.408Z,0.40
2022-08-19T11:12:58.257Z,0.50
2022-08-19T11:14:00.266Z,0.45
2022-08-19T11:15:03.267Z,0.50
2022-08-19T11:16:08.625Z,0.40
2022-08-19T11:17:12.207Z,0.40
2022-08-19T11:18:14.289Z,0.45
2022-08-19T11:19:19.984Z,0.40
2022-08-19T11:20:21.924Z,0.40
2022-08-19T11:21:26.944Z,0.40
2022-08-19T11:22:39.038Z,0.40
2022-08-19T11:23:46.007Z,0.40
2022-08-19T11:24:49.123Z,0.40
2022-08-19T11:25:50.973Z,0.40
2022-08-19T11:26:58.565Z,0.40
2022-08-19T11:28:00.625Z,0.50
2022-08-19T11:29:05.465Z,0.40
2022-08-19T11:30:13.050Z,0.40
2022-08-19T11:31:17.608Z,0.40
2022-08-19T11:32:21.623Z,0.35
2022-08-19T11:33:23.572Z,0.40
2022-08-19T11:34:29.337Z,0.40
2022-08-19T11:35:31.295Z,0.50
2022-08-19T11:36:35.427Z,0.50
2022-08-19T11:37:39.339Z,0.40
2022-08-19T11:38:42.335Z,0.50
2022-08-19T11:39:46.071Z,0.50
2022-08-19T11:41:01.470Z,0.40
2022-08-19T11:42:26.055Z,0.40
2022-08-19T11:43:32.361Z,0.50
2022-08-19T11:44:36.948Z,0.50
2022-08-19T11:45:39.940Z,0.40
2022-08-19T11:46:44.545Z,0.50
2022-08-19T11:47:48.320Z,0.40
2022-08-19T11:48:51.749Z,0.40
2022-08-19T11:49:54.409Z,0.40
2022-08-19T11:50:57.462Z,0.40
2022-08-19T11:51:59.337Z,0.50
2022-08-19T11:53:02.426Z,0.40
2022-08-19T11:54:06.589Z,0.50
2022-08-19T11:55:11.583Z,0.50
2022-08-19T11:56:13.785Z,0.50
2022-08-19T11:57:18.018Z,0.40
2022-08-19T11:58:19.881Z,0.50
2022-08-19T11:59:22.955Z,0.43
2022-08-19T12:00:25.121Z,0.50
2022-08-19T12:01:29.142Z,0.50
2022-08-19T12:02:32.078Z,0.50
2022-08-19T12:03:34.717Z,0.50
2022-08-19T12:04:37.614Z,0.50
2022-08-19T12:05:40.760Z,0.50
2022-08-19T12:06:43.687Z,0.50
2022-08-19T12:07:46.927Z,0.40
2022-08-19T12:08:49.790Z,0.40
2022-08-19T12:09:52.733Z,0.50
2022-08-19T12:10:55.954Z,0.40
2022-08-19T12:11:58.813Z,0.40
2022-08-19T12:13:02.242Z,0.40
2022-08-19T12:14:04.232Z,0.50
2022-08-19T12:15:08.807Z,0.50
2022-08-19T12:16:13.437Z,0.50
2022-08-19T12:17:16.330Z,0.40
2022-08-19T12:18:18.197Z,0.50
2022-08-19T12:19:22.538Z,0.40
2022-08-19T12:20:25.301Z,0.40
2022-08-19T12:21:29.658Z,0.50
2022-08-19T12:22:31.820Z,0.50
2022-08-19T12:23:34.844Z,0.50
2022-08-19T12:24:36.788Z,0.40
2022-08-19T12:25:52.833Z,0.52
2022-08-19T12:27:00.948Z,0.50
2022-08-19T12:28:05.200Z,0.50
2022-08-19T12:29:09.433Z,0.47
2022-08-19T12:30:14.344Z,0.40
2022-08-19T12:31:18.231Z,0.40
2022-08-19T12:32:20.145Z,0.40
2022-08-19T12:33:27.152Z,0.40
2022-08-19T12:34:32.006Z,0.50
2022-08-19T12:35:34.077Z,0.50
2022-08-19T12:36:37.202Z,0.50
2022-08-19T12:37:43.585Z,0.50
2022-08-19T12:38:45.865Z,0.50
2022-08-19T12:39:48.769Z,0.40
2022-08-19T12:40:54.368Z,0.40
2022-08-19T12:42:01.416Z,0.40
2022-08-19T12:43:03.576Z,0.50
2022-08-19T12:44:11.577Z,0.45
2022-08-19T12:45:16.879Z,0.50
2022-08-19T12:46:20.593Z,0.50
2022-08-19T12:47:27.431Z,0.40
2022-08-19T12:48:33.690Z,0.50
2022-08-19T12:49:54.093Z,0.50
2022-08-19T12:50:58.542Z,0.40
2022-08-19T12:52:01.650Z,0.40
2022-08-19T12:53:03.581Z,0.40
2022-08-19T12:54:07.465Z,0.40
2022-08-19T12:55:11.536Z,0.50
2022-08-19T12:56:15.611Z,0.40
2022-08-19T12:57:33.053Z,0.50
2022-08-19T12:58:35.485Z,0.43
2022-08-19T12:59:39.575Z,0.40
2022-08-19T13:00:42.694Z,0.40
2022-08-19T13:01:44.945Z,0.50
2022-08-19T13:02:50.624Z,0.40
2022-08-19T13:03:53.479Z,0.40
2022-08-19T13:04:56.559Z,0.40
2022-08-19T13:05:58.413Z,0.50
2022-08-19T13:07:01.292Z,0.50
2022-08-19T13:08:03.607Z,0.40
2022-08-19T13:09:07.337Z,0.40
2022-08-19T13:10:12.795Z,0.40
2022-08-19T13:11:18.449Z,0.50
2022-08-19T13:12:21.354Z,0.47
2022-08-19T13:13:29.273Z,0.40
2022-08-19T13:14:32.340Z,0.40
2022-08-19T13:15:40.662Z,0.40
2022-08-19T13:16:42.897Z,0.32
2022-08-19T13:17:45.793Z,0.40
2022-08-19T13:18:48.351Z,0.40
2022-08-19T13:19:51.715Z,0.40
2022-08-19T13:20:54.060Z,0.40
2022-08-19T13:22:00.139Z,0.30
2022-08-19T13:23:02.416Z,0.35
2022-08-19T13:24:06.074Z,0.30
2022-08-19T13:25:18.500Z,0.40
2022-08-19T13:26:24.919Z,0.40
2022-08-19T13:27:26.818Z,0.40
2022-08-19T13:28:51.948Z,0.40
2022-08-19T13:30:12.197Z,0.40
2022-08-19T13:31:34.963Z,0.40
2022-08-19T13:32:55.103Z,0.40
2022-08-19T13:33:57.953Z,0.40
2022-08-19T13:34:59.851Z,0.30
2022-08-19T13:36:02.941Z,0.40
2022-08-19T13:37:06.133Z,0.30
2022-08-19T13:38:11.929Z,0.30
2022-08-19T13:39:15.259Z,0.30
2022-08-19T13:40:20.083Z,0.30
2022-08-19T13:41:22.985Z,0.30
2022-08-19T13:42:25.308Z,0.40
2022-08-19T13:43:34.561Z,0.30
2022-08-19T13:44:36.821Z,0.30
2022-08-19T13:45:39.837Z,0.40
2022-08-19T13:46:45.579Z,0.35
2022-08-19T13:47:59.197Z,0.40
2022-08-19T13:49:03.906Z,0.40
2022-08-19T13:50:08.092Z,0.30
2022-08-19T13:51:11.390Z,0.40
2022-08-19T13:52:17.229Z,0.40
2022-08-19T13:53:20.718Z,0.43
2022-08-19T13:54:22.705Z,0.50
2022-08-19T13:55:26.624Z,0.40
2022-08-19T13:56:29.739Z,0.50
2022-08-19T13:57:31.917Z,0.50
2022-08-19T13:58:40.535Z,0.50
2022-08-19T13:59:42.424Z,0.50
2022-08-19T14:00:47.690Z,0.50
2022-08-19T14:01:49.691Z,0.50
2022-08-19T14:02:54.358Z,0.50
2022-08-19T14:03:56.298Z,0.40
2022-08-19T14:05:00.323Z,0.50
2022-08-19T14:06:02.430Z,0.40
2022-08-19T14:07:05.744Z,0.40
2022-08-19T14:08:07.709Z,0.40
2022-08-19T14:09:11.421Z,0.40
2022-08-19T14:10:14.165Z,0.40
2022-08-19T14:11:17.907Z,0.43
2022-08-19T14:12:28.188Z,0.40
2022-08-19T14:13:31.949Z,0.50
2022-08-19T14:14:38.065Z,0.50
2022-08-19T14:15:41.085Z,0.40
2022-08-19T14:16:44.252Z,0.50
2022-08-19T14:17:50.203Z,0.40
2022-08-19T14:18:53.861Z,0.45
2022-08-19T14:19:58.143Z,0.40
2022-08-19T14:21:01.074Z,0.40
2022-08-19T14:22:03.024Z,0.40
2022-08-19T14:23:07.069Z,0.50
2022-08-19T14:24:09.485Z,0.50
2022-08-19T14:25:15.528Z,0.50
2022-08-19T14:26:20.079Z,0.50
2022-08-19T14:27:26.095Z,0.43
2022-08-19T14:28:29.358Z,0.40
2022-08-19T14:29:32.229Z,0.50
2022-08-19T14:30:38.606Z,0.47
2022-08-19T14:31:44.244Z,0.50
2022-08-19T14:32:49.520Z,0.40
2022-08-19T14:33:52.858Z,0.50
2022-08-19T14:34:55.374Z,0.50
2022-08-19T14:36:01.727Z,0.50
2022-08-19T14:37:04.736Z,0.45
2022-08-19T14:38:08.250Z,0.40
2022-08-19T14:39:11.396Z,0.40